sensor_id;sensor_type;location;lat;lon;timestamp;pressure;altitude;pressure_sealevel;temperature
54746;BMP180;40640;48.130;11.356;2023-07-13T00:03:54;95655.00;;;20.10
54746;BMP180;40640;48.130;11.356;2023-07-13T00:07:58;95652.00;;;20.00
54746;BMP180;40640;48.130;11.356;2023-07-13T00:12:02;95657.00;;;20.10
54746;BMP180;40640;48.130;11.356;2023-07-13T00:16:06;95647.00;;;20.10
54746;BMP180;40640;48.130;11.356;2023-07-13T00:20:10;95635.00;;;20.00
54746;BMP180;40640;48.130;11.356;2023-07-13T00:24:16;95629.00;;;20.00
54746;BMP180;40640;48.130;11.356;2023-07-13T00:28:25;95635.00;;;20.00
54746;BMP180;40640;48.130;11.356;2023-07-13T00:32:28;95644.00;;;20.00
54746;BMP180;40640;48.130;11.356;2023-07-13T00:36:33;95639.00;;;19.90
54746;BMP180;40640;48.130;11.356;2023-07-13T00:40:38;95648.00;;;19.80
54746;BMP180;40640;48.130;11.356;2023-07-13T00:44:41;95640.00;;;19.90
54746;BMP180;40640;48.130;11.356;2023-07-13T00:48:45;95641.00;;;19.80
54746;BMP180;40640;48.130;11.356;2023-07-13T00:52:51;95656.00;;;19.80
54746;BMP180;40640;48.130;11.356;2023-07-13T00:56:59;95646.00;;;19.80
54746;BMP180;40640;48.130;11.356;2023-07-13T01:01:03;95623.00;;;19.60
54746;BMP180;40640;48.130;11.356;2023-07-13T01:05:09;95625.00;;;19.60
54746;BMP180;40640;48.130;11.356;2023-07-13T01:09:12;95620.00;;;19.60
54746;BMP180;40640;48.130;11.356;2023-07-13T01:13:17;95622.00;;;19.70
54746;BMP180;40640;48.130;11.356;2023-07-13T01:17:20;95619.00;;;19.70
54746;BMP180;40640;48.130;11.356;2023-07-13T01:21:25;95622.00;;;19.70
54746;BMP180;40640;48.130;11.356;2023-07-13T01:25:28;95608.00;;;19.80
54746;BMP180;40640;48.130;11.356;2023-07-13T01:29:32;95603.00;;;19.70
54746;BMP180;40640;48.130;11.356;2023-07-13T01:33:36;95606.00;;;19.80
54746;BMP180;40640;48.130;11.356;2023-07-13T01:37:40;95597.00;;;19.80
54746;BMP180;40640;48.130;11.356;2023-07-13T01:41:43;95610.00;;;19.80
54746;BMP180;40640;48.130;11.356;2023-07-13T01:45:46;95610.00;;;19.80
54746;BMP180;40640;48.130;11.356;2023-07-13T01:49:49;95617.00;;;19.90
54746;BMP180;40640;48.130;11.356;2023-07-13T01:53:54;95622.00;;;19.90
54746;BMP180;40640;48.130;11.356;2023-07-13T01:57:58;95627.00;;;19.90
54746;BMP180;40640;48.130;11.356;2023-07-13T02:02:00;95629.00;;;20.00
54746;BMP180;40640;48.130;11.356;2023-07-13T02:06:04;95620.00;;;20.00
54746;BMP180;40640;48.130;11.356;2023-07-13T02:10:09;95627.00;;;20.00
54746;BMP180;40640;48.130;11.356;2023-07-13T02:14:13;95623.00;;;19.90
54746;BMP180;40640;48.130;11.356;2023-07-13T02:18:17;95635.00;;;19.90
54746;BMP180;40640;48.130;11.356;2023-07-13T02:22:20;95646.00;;;19.90
54746;BMP180;40640;48.130;11.356;2023-07-13T02:26:25;95650.00;;;19.90
54746;BMP180;40640;48.130;11.356;2023-07-13T02:30:28;95666.00;;;20.00
54746;BMP180;40640;48.130;11.356;2023-07-13T02:34:32;95674.00;;;19.90
54746;BMP180;40640;48.130;11.356;2023-07-13T02:38:38;95689.00;;;19.90
54746;BMP180;40640;48.130;11.356;2023-07-13T02:42:42;95688.00;;;19.80
54746;BMP180;40640;48.130;11.356;2023-07-13T02:46:45;95692.00;;;19.70
54746;BMP180;40640;48.130;11.356;2023-07-13T02:50:48;95683.00;;;19.60
54746;BMP180;40640;48.130;11.356;2023-07-13T02:54:51;95686.00;;;19.50
54746;BMP180;40640;48.130;11.356;2023-07-13T02:58:56;95688.00;;;19.40
54746;BMP180;40640;48.130;11.356;2023-07-13T03:02:59;95679.00;;;19.40
54746;BMP180;40640;48.130;11.356;2023-07-13T03:07:03;95685.00;;;19.30
54746;BMP180;40640;48.130;11.356;2023-07-13T03:11:12;95691.00;;;19.20
54746;BMP180;40640;48.130;11.356;2023-07-13T03:15:18;95681.00;;;19.20
54746;BMP180;40640;48.130;11.356;2023-07-13T03:19:23;95682.00;;;19.10
54746;BMP180;40640;48.130;11.356;2023-07-13T03:23:27;95698.00;;;19.10
54746;BMP180;40640;48.130;11.356;2023-07-13T03:27:30;95691.00;;;19.10
54746;BMP180;40640;48.130;11.356;2023-07-13T03:31:36;95711.00;;;19.10
54746;BMP180;40640;48.130;11.356;2023-07-13T03:35:40;95710.00;;;19.00
54746;BMP180;40640;48.130;11.356;2023-07-13T03:39:44;95702.00;;;18.90
54746;BMP180;40640;48.130;11.356;2023-07-13T03:43:48;95697.00;;;18.80
54746;BMP180;40640;48.130;11.356;2023-07-13T03:47:55;95701.00;;;18.80
54746;BMP180;40640;48.130;11.356;2023-07-13T03:51:59;95709.00;;;18.70
54746;BMP180;40640;48.130;11.356;2023-07-13T03:56:03;95716.00;;;18.60
54746;BMP180;40640;48.130;11.356;2023-07-13T04:00:07;95706.00;;;18.70
54746;BMP180;40640;48.130;11.356;2023-07-13T04:04:17;95710.00;;;18.80
54746;BMP180;40640;48.130;11.356;2023-07-13T04:08:20;95706.00;;;18.70
54746;BMP180;40640;48.130;11.356;2023-07-13T04:12:23;95718.00;;;18.60
54746;BMP180;40640;48.130;11.356;2023-07-13T04:16:26;95724.00;;;18.70
54746;BMP180;40640;48.130;11.356;2023-07-13T04:20:30;95732.00;;;18.70
54746;BMP180;40640;48.130;11.356;2023-07-13T04:24:34;95725.00;;;18.80
54746;BMP180;40640;48.130;11.356;2023-07-13T04:28:37;95720.00;;;18.80
54746;BMP180;40640;48.130;11.356;2023-07-13T04:32:40;95725.00;;;18.80
54746;BMP180;40640;48.130;11.356;2023-07-13T04:36:44;95732.00;;;18.90
54746;BMP180;40640;48.130;11.356;2023-07-13T04:40:47;95726.00;;;18.90
54746;BMP180;40640;48.130;11.356;2023-07-13T04:44:51;95715.00;;;18.90
54746;BMP180;40640;48.130;11.356;2023-07-13T04:48:54;95751.00;;;18.90
54746;BMP180;40640;48.130;11.356;2023-07-13T04:52:58;95744.00;;;18.90
54746;BMP180;40640;48.130;11.356;2023-07-13T04:57:01;95749.00;;;18.90
54746;BMP180;40640;48.130;11.356;2023-07-13T05:01:05;95749.00;;;18.90
54746;BMP180;40640;48.130;11.356;2023-07-13T05:05:12;95747.00;;;19.00
54746;BMP180;40640;48.130;11.356;2023-07-13T05:09:17;95749.00;;;19.10
54746;BMP180;40640;48.130;11.356;2023-07-13T05:13:19;95752.00;;;19.00
54746;BMP180;40640;48.130;11.356;2023-07-13T05:17:22;95746.00;;;19.10
54746;BMP180;40640;48.130;11.356;2023-07-13T05:21:25;95745.00;;;19.10
54746;BMP180;40640;48.130;11.356;2023-07-13T05:25:30;95759.00;;;19.10
54746;BMP180;40640;48.130;11.356;2023-07-13T05:29:32;95759.00;;;19.10
54746;BMP180;40640;48.130;11.356;2023-07-13T05:33:36;95752.00;;;19.20
54746;BMP180;40640;48.130;11.356;2023-07-13T05:37:39;95764.00;;;19.30
54746;BMP180;40640;48.130;11.356;2023-07-13T05:41:43;95754.00;;;19.60
54746;BMP180;40640;48.130;11.356;2023-07-13T05:45:46;95758.00;;;20.10
54746;BMP180;40640;48.130;11.356;2023-07-13T05:49:49;95757.00;;;20.50
54746;BMP180;40640;48.130;11.356;2023-07-13T05:53:52;95761.00;;;20.40
54746;BMP180;40640;48.130;11.356;2023-07-13T05:57:56;95771.00;;;20.30
54746;BMP180;40640;48.130;11.356;2023-07-13T06:01:59;95769.00;;;20.30
54746;BMP180;40640;48.130;11.356;2023-07-13T06:06:02;95765.00;;;20.40
54746;BMP180;40640;48.130;11.356;2023-07-13T06:10:07;95782.00;;;20.70
54746;BMP180;40640;48.130;11.356;2023-07-13T06:14:11;95784.00;;;21.20
54746;BMP180;40640;48.130;11.356;2023-07-13T06:18:14;95786.00;;;21.20
54746;BMP180;40640;48.130;11.356;2023-07-13T06:22:17;95782.00;;;21.30
54746;BMP180;40640;48.130;11.356;2023-07-13T06:26:20;95793.00;;;21.30
54746;BMP180;40640;48.130;11.356;2023-07-13T06:30:25;95798.00;;;21.20
54746;BMP180;40640;48.130;11.356;2023-07-13T06:34:28;95812.00;;;20.90
54746;BMP180;40640;48.130;11.356;2023-07-13T06:38:31;95824.00;;;20.80
54746;BMP180;40640;48.130;11.356;2023-07-13T06:42:33;95825.00;;;20.70
54746;BMP180;40640;48.130;11.356;2023-07-13T06:46:38;95820.00;;;20.60
54746;BMP180;40640;48.130;11.356;2023-07-13T06:50:41;95819.00;;;20.70
54746;BMP180;40640;48.130;11.356;2023-07-13T06:54:44;95830.00;;;20.80
54746;BMP180;40640;48.130;11.356;2023-07-13T06:58:47;95834.00;;;20.70
54746;BMP180;40640;48.130;11.356;2023-07-13T07:02:51;95839.00;;;20.60
54746;BMP180;40640;48.130;11.356;2023-07-13T07:06:54;95832.00;;;20.50
54746;BMP180;40640;48.130;11.356;2023-07-13T07:11:00;95832.00;;;20.60
54746;BMP180;40640;48.130;11.356;2023-07-13T07:15:03;95834.00;;;20.70
54746;BMP180;40640;48.130;11.356;2023-07-13T07:19:08;95836.00;;;20.80
54746;BMP180;40640;48.130;11.356;2023-07-13T07:23:10;95829.00;;;20.90
54746;BMP180;40640;48.130;11.356;2023-07-13T07:27:13;95845.00;;;20.80
54746;BMP180;40640;48.130;11.356;2023-07-13T07:31:19;95852.00;;;20.70
54746;BMP180;40640;48.130;11.356;2023-07-13T07:35:26;95862.00;;;20.70
54746;BMP180;40640;48.130;11.356;2023-07-13T07:39:33;95866.00;;;20.80
54746;BMP180;40640;48.130;11.356;2023-07-13T07:43:36;95858.00;;;20.80
54746;BMP180;40640;48.130;11.356;2023-07-13T07:47:39;95875.00;;;20.60
54746;BMP180;40640;48.130;11.356;2023-07-13T07:51:44;95886.00;;;20.40
54746;BMP180;40640;48.130;11.356;2023-07-13T07:55:47;95874.00;;;20.30
54746;BMP180;40640;48.130;11.356;2023-07-13T07:59:53;95875.00;;;20.30
54746;BMP180;40640;48.130;11.356;2023-07-13T08:03:58;95882.00;;;20.20
54746;BMP180;40640;48.130;11.356;2023-07-13T08:08:05;95880.00;;;20.20
54746;BMP180;40640;48.130;11.356;2023-07-13T08:12:08;95890.00;;;20.10
54746;BMP180;40640;48.130;11.356;2023-07-13T08:16:14;95895.00;;;20.10
54746;BMP180;40640;48.130;11.356;2023-07-13T08:20:17;95896.00;;;20.20
54746;BMP180;40640;48.130;11.356;2023-07-13T08:24:23;95899.00;;;20.30
54746;BMP180;40640;48.130;11.356;2023-07-13T08:28:26;95895.00;;;20.50
54746;BMP180;40640;48.130;11.356;2023-07-13T08:32:32;95903.00;;;20.80
54746;BMP180;40640;48.130;11.356;2023-07-13T08:36:34;95908.00;;;21.00
54746;BMP180;40640;48.130;11.356;2023-07-13T08:40:40;95908.00;;;21.30
54746;BMP180;40640;48.130;11.356;2023-07-13T08:44:59;95904.00;;;21.20
54746;BMP180;40640;48.130;11.356;2023-07-13T08:49:11;95908.00;;;21.00
54746;BMP180;40640;48.130;11.356;2023-07-13T08:53:16;95898.00;;;20.90
54746;BMP180;40640;48.130;11.356;2023-07-13T08:57:25;95909.00;;;20.70
54746;BMP180;40640;48.130;11.356;2023-07-13T09:01:44;95913.00;;;20.80
54746;BMP180;40640;48.130;11.356;2023-07-13T09:05:52;95918.00;;;21.00
54746;BMP180;40640;48.130;11.356;2023-07-13T09:10:05;95914.00;;;21.00
54746;BMP180;40640;48.130;11.356;2023-07-13T09:14:31;95917.00;;;21.00
54746;BMP180;40640;48.130;11.356;2023-07-13T09:18:38;95909.00;;;20.90
54746;BMP180;40640;48.130;11.356;2023-07-13T09:22:42;95916.00;;;21.20
54746;BMP180;40640;48.130;11.356;2023-07-13T09:26:45;95921.00;;;21.20
54746;BMP180;40640;48.130;11.356;2023-07-13T09:30:54;95911.00;;;21.20
54746;BMP180;40640;48.130;11.356;2023-07-13T09:34:58;95921.00;;;21.20
54746;BMP180;40640;48.130;11.356;2023-07-13T09:39:05;95919.00;;;21.30
54746;BMP180;40640;48.130;11.356;2023-07-13T09:43:14;95921.00;;;21.80
54746;BMP180;40640;48.130;11.356;2023-07-13T09:47:21;95918.00;;;21.90
54746;BMP180;40640;48.130;11.356;2023-07-13T09:51:24;95920.00;;;21.70
54746;BMP180;40640;48.130;11.356;2023-07-13T09:55:30;95919.00;;;21.80
54746;BMP180;40640;48.130;11.356;2023-07-13T09:59:37;95930.00;;;22.00
54746;BMP180;40640;48.130;11.356;2023-07-13T10:03:53;95915.00;;;22.30
54746;BMP180;40640;48.130;11.356;2023-07-13T10:07:56;95914.00;;;22.80
54746;BMP180;40640;48.130;11.356;2023-07-13T10:11:59;95925.00;;;23.30
54746;BMP180;40640;48.130;11.356;2023-07-13T10:16:04;95924.00;;;23.30
54746;BMP180;40640;48.130;11.356;2023-07-13T10:20:09;95923.00;;;23.80
54746;BMP180;40640;48.130;11.356;2023-07-13T10:24:16;95924.00;;;23.50
54746;BMP180;40640;48.130;11.356;2023-07-13T10:28:26;95938.00;;;23.40
54746;BMP180;40640;48.130;11.356;2023-07-13T10:32:30;95939.00;;;23.30
54746;BMP180;40640;48.130;11.356;2023-07-13T10:36:40;95926.00;;;22.90
54746;BMP180;40640;48.130;11.356;2023-07-13T10:40:55;95935.00;;;23.20
54746;BMP180;40640;48.130;11.356;2023-07-13T10:44:59;95941.00;;;23.80
54746;BMP180;40640;48.130;11.356;2023-07-13T10:49:05;95940.00;;;24.30
54746;BMP180;40640;48.130;11.356;2023-07-13T10:53:20;95945.00;;;24.30
54746;BMP180;40640;48.130;11.356;2023-07-13T10:57:23;95934.00;;;24.20
54746;BMP180;40640;48.130;11.356;2023-07-13T11:01:40;95932.00;;;24.90
54746;BMP180;40640;48.130;11.356;2023-07-13T11:05:43;95943.00;;;25.10
54746;BMP180;40640;48.130;11.356;2023-07-13T11:09:51;95950.00;;;25.30
54746;BMP180;40640;48.130;11.356;2023-07-13T11:13:58;95945.00;;;25.40
54746;BMP180;40640;48.130;11.356;2023-07-13T11:18:09;95938.00;;;25.80
54746;BMP180;40640;48.130;11.356;2023-07-13T11:22:23;95934.00;;;26.40
54746;BMP180;40640;48.130;11.356;2023-07-13T11:26:41;95931.00;;;26.00
54746;BMP180;40640;48.130;11.356;2023-07-13T11:30:47;95936.00;;;25.90
54746;BMP180;40640;48.130;11.356;2023-07-13T11:34:51;95931.00;;;25.60
54746;BMP180;40640;48.130;11.356;2023-07-13T11:39:00;95927.00;;;25.90
54746;BMP180;40640;48.130;11.356;2023-07-13T11:43:06;95919.00;;;25.90
54746;BMP180;40640;48.130;11.356;2023-07-13T11:47:11;95916.00;;;26.00
54746;BMP180;40640;48.130;11.356;2023-07-13T11:51:17;95910.00;;;26.20
54746;BMP180;40640;48.130;11.356;2023-07-13T11:55:22;95919.00;;;27.10
54746;BMP180;40640;48.130;11.356;2023-07-13T11:59:29;95918.00;;;27.20
54746;BMP180;40640;48.130;11.356;2023-07-13T12:03:34;95926.00;;;26.40
54746;BMP180;40640;48.130;11.356;2023-07-13T12:07:38;95924.00;;;26.40
54746;BMP180;40640;48.130;11.356;2023-07-13T12:11:42;95918.00;;;26.10
54746;BMP180;40640;48.130;11.356;2023-07-13T12:15:48;95917.00;;;26.30
54746;BMP180;40640;48.130;11.356;2023-07-13T12:19:53;95907.00;;;26.30
54746;BMP180;40640;48.130;11.356;2023-07-13T12:23:56;95901.00;;;26.60
54746;BMP180;40640;48.130;11.356;2023-07-13T12:28:19;95909.00;;;26.40
54746;BMP180;40640;48.130;11.356;2023-07-13T12:32:24;95913.00;;;27.20
54746;BMP180;40640;48.130;11.356;2023-07-13T12:36:31;95907.00;;;27.60
54746;BMP180;40640;48.130;11.356;2023-07-13T12:40:34;95895.00;;;28.30
54746;BMP180;40640;48.130;11.356;2023-07-13T12:44:41;95900.00;;;30.00
54746;BMP180;40640;48.130;11.356;2023-07-13T12:48:48;95898.00;;;30.20
54746;BMP180;40640;48.130;11.356;2023-07-13T12:53:13;95895.00;;;29.40
54746;BMP180;40640;48.130;11.356;2023-07-13T12:57:16;95882.00;;;29.90
54746;BMP180;40640;48.130;11.356;2023-07-13T13:01:21;95873.00;;;30.00
54746;BMP180;40640;48.130;11.356;2023-07-13T13:05:26;95888.00;;;31.00
54746;BMP180;40640;48.130;11.356;2023-07-13T13:09:29;95886.00;;;32.10
54746;BMP180;40640;48.130;11.356;2023-07-13T13:13:32;95893.00;;;30.20
54746;BMP180;40640;48.130;11.356;2023-07-13T13:17:35;95893.00;;;29.30
54746;BMP180;40640;48.130;11.356;2023-07-13T13:21:39;95898.00;;;29.20
54746;BMP180;40640;48.130;11.356;2023-07-13T13:25:43;95894.00;;;28.90
54746;BMP180;40640;48.130;11.356;2023-07-13T13:29:48;95903.00;;;27.50
54746;BMP180;40640;48.130;11.356;2023-07-13T13:33:53;95896.00;;;27.20
54746;BMP180;40640;48.130;11.356;2023-07-13T13:37:57;95904.00;;;26.50
54746;BMP180;40640;48.130;11.356;2023-07-13T13:42:00;95896.00;;;26.90
54746;BMP180;40640;48.130;11.356;2023-07-13T13:46:12;95895.00;;;27.00
54746;BMP180;40640;48.130;11.356;2023-07-13T13:50:18;95905.00;;;27.00
54746;BMP180;40640;48.130;11.356;2023-07-13T13:54:24;95907.00;;;27.00
54746;BMP180;40640;48.130;11.356;2023-07-13T13:58:27;95911.00;;;27.10
54746;BMP180;40640;48.130;11.356;2023-07-13T14:02:32;95908.00;;;26.90
54746;BMP180;40640;48.130;11.356;2023-07-13T14:06:35;95908.00;;;26.80
54746;BMP180;40640;48.130;11.356;2023-07-13T14:10:42;95898.00;;;26.60
54746;BMP180;40640;48.130;11.356;2023-07-13T14:14:45;95896.00;;;26.60
54746;BMP180;40640;48.130;11.356;2023-07-13T14:18:49;95892.00;;;26.10
54746;BMP180;40640;48.130;11.356;2023-07-13T14:22:52;95896.00;;;25.90
54746;BMP180;40640;48.130;11.356;2023-07-13T14:26:58;95890.00;;;25.90
54746;BMP180;40640;48.130;11.356;2023-07-13T14:31:00;95888.00;;;25.90
54746;BMP180;40640;48.130;11.356;2023-07-13T14:35:04;95894.00;;;26.10
54746;BMP180;40640;48.130;11.356;2023-07-13T14:39:13;95895.00;;;25.70
54746;BMP180;40640;48.130;11.356;2023-07-13T14:43:18;95903.00;;;25.50
54746;BMP180;40640;48.130;11.356;2023-07-13T14:47:21;95893.00;;;25.40
54746;BMP180;40640;48.130;11.356;2023-07-13T14:51:24;95891.00;;;25.40
54746;BMP180;40640;48.130;11.356;2023-07-13T14:55:27;95900.00;;;25.50
54746;BMP180;40640;48.130;11.356;2023-07-13T14:59:31;95892.00;;;25.70
54746;BMP180;40640;48.130;11.356;2023-07-13T15:03:33;95891.00;;;25.60
54746;BMP180;40640;48.130;11.356;2023-07-13T15:07:40;95890.00;;;25.50
54746;BMP180;40640;48.130;11.356;2023-07-13T15:11:43;95889.00;;;25.50
54746;BMP180;40640;48.130;11.356;2023-07-13T15:15:49;95878.00;;;25.50
54746;BMP180;40640;48.130;11.356;2023-07-13T15:19:52;95875.00;;;25.50
54746;BMP180;40640;48.130;11.356;2023-07-13T15:23:55;95884.00;;;25.40
54746;BMP180;40640;48.130;11.356;2023-07-13T15:27:58;95883.00;;;25.10
54746;BMP180;40640;48.130;11.356;2023-07-13T15:32:08;95881.00;;;25.00
54746;BMP180;40640;48.130;11.356;2023-07-13T15:36:11;95876.00;;;25.20
54746;BMP180;40640;48.130;11.356;2023-07-13T15:40:15;95881.00;;;25.20
54746;BMP180;40640;48.130;11.356;2023-07-13T15:44:24;95861.00;;;25.20
54746;BMP180;40640;48.130;11.356;2023-07-13T15:48:29;95873.00;;;25.00
54746;BMP180;40640;48.130;11.356;2023-07-13T15:52:32;95867.00;;;25.10
54746;BMP180;40640;48.130;11.356;2023-07-13T15:56:36;95874.00;;;25.10
54746;BMP180;40640;48.130;11.356;2023-07-13T16:00:41;95880.00;;;25.10
54746;BMP180;40640;48.130;11.356;2023-07-13T16:04:45;95877.00;;;25.20
54746;BMP180;40640;48.130;11.356;2023-07-13T16:08:49;95876.00;;;25.20
54746;BMP180;40640;48.130;11.356;2023-07-13T16:12:52;95882.00;;;25.10
54746;BMP180;40640;48.130;11.356;2023-07-13T16:16:56;95877.00;;;25.00
54746;BMP180;40640;48.130;11.356;2023-07-13T16:21:01;95881.00;;;24.90
54746;BMP180;40640;48.130;11.356;2023-07-13T16:25:12;95873.00;;;25.00
54746;BMP180;40640;48.130;11.356;2023-07-13T16:29:17;95880.00;;;25.00
54746;BMP180;40640;48.130;11.356;2023-07-13T16:33:20;95879.00;;;25.00
54746;BMP180;40640;48.130;11.356;2023-07-13T16:37:28;95884.00;;;24.90
54746;BMP180;40640;48.130;11.356;2023-07-13T16:41:31;95891.00;;;24.90
54746;BMP180;40640;48.130;11.356;2023-07-13T16:45:34;95900.00;;;24.80
54746;BMP180;40640;48.130;11.356;2023-07-13T16:49:38;95898.00;;;24.60
54746;BMP180;40640;48.130;11.356;2023-07-13T16:53:43;95895.00;;;24.60
54746;BMP180;40640;48.130;11.356;2023-07-13T16:57:46;95896.00;;;24.60
54746;BMP180;40640;48.130;11.356;2023-07-13T17:01:49;95896.00;;;24.40
54746;BMP180;40640;48.130;11.356;2023-07-13T17:05:53;95892.00;;;24.20
54746;BMP180;40640;48.130;11.356;2023-07-13T17:09:58;95899.00;;;24.10
54746;BMP180;40640;48.130;11.356;2023-07-13T17:14:01;95894.00;;;24.20
54746;BMP180;40640;48.130;11.356;2023-07-13T17:18:09;95891.00;;;24.20
54746;BMP180;40640;48.130;11.356;2023-07-13T17:22:13;95901.00;;;24.20
54746;BMP180;40640;48.130;11.356;2023-07-13T17:26:20;95890.00;;;24.10
54746;BMP180;40640;48.130;11.356;2023-07-13T17:30:24;95897.00;;;24.10
54746;BMP180;40640;48.130;11.356;2023-07-13T17:34:26;95890.00;;;24.10
54746;BMP180;40640;48.130;11.356;2023-07-13T17:38:31;95901.00;;;24.00
54746;BMP180;40640;48.130;11.356;2023-07-13T17:42:38;95908.00;;;23.90
54746;BMP180;40640;48.130;11.356;2023-07-13T17:46:42;95897.00;;;23.80
54746;BMP180;40640;48.130;11.356;2023-07-13T17:50:46;95894.00;;;23.70
54746;BMP180;40640;48.130;11.356;2023-07-13T17:54:51;95901.00;;;23.70
54746;BMP180;40640;48.130;11.356;2023-07-13T17:58:55;95898.00;;;23.70
54746;BMP180;40640;48.130;11.356;2023-07-13T18:02:59;95901.00;;;23.60
54746;BMP180;40640;48.130;11.356;2023-07-13T18:07:08;95902.00;;;23.50
54746;BMP180;40640;48.130;11.356;2023-07-13T18:11:18;95907.00;;;23.40
54746;BMP180;40640;48.130;11.356;2023-07-13T18:15:24;95915.00;;;23.30
54746;BMP180;40640;48.130;11.356;2023-07-13T18:19:31;95910.00;;;23.20
54746;BMP180;40640;48.130;11.356;2023-07-13T18:23:35;95914.00;;;23.10
54746;BMP180;40640;48.130;11.356;2023-07-13T18:27:38;95910.00;;;23.10
54746;BMP180;40640;48.130;11.356;2023-07-13T18:31:42;95914.00;;;22.90
54746;BMP180;40640;48.130;11.356;2023-07-13T18:35:46;95912.00;;;22.90
54746;BMP180;40640;48.130;11.356;2023-07-13T18:39:51;95918.00;;;22.80
54746;BMP180;40640;48.130;11.356;2023-07-13T18:43:54;95923.00;;;22.80
54746;BMP180;40640;48.130;11.356;2023-07-13T18:47:59;95920.00;;;22.70
54746;BMP180;40640;48.130;11.356;2023-07-13T18:52:03;95923.00;;;22.60
54746;BMP180;40640;48.130;11.356;2023-07-13T18:56:07;95933.00;;;22.60
54746;BMP180;40640;48.130;11.356;2023-07-13T19:00:14;95923.00;;;22.50
54746;BMP180;40640;48.130;11.356;2023-07-13T19:04:26;95923.00;;;22.40
54746;BMP180;40640;48.130;11.356;2023-07-13T19:08:29;95921.00;;;22.20
54746;BMP180;40640;48.130;11.356;2023-07-13T19:12:32;95925.00;;;22.20
54746;BMP180;40640;48.130;11.356;2023-07-13T19:16:36;95928.00;;;22.10
54746;BMP180;40640;48.130;11.356;2023-07-13T19:20:41;95934.00;;;22.10
54746;BMP180;40640;48.130;11.356;2023-07-13T19:24:45;95936.00;;;22.00
54746;BMP180;40640;48.130;11.356;2023-07-13T19:28:50;95948.00;;;21.90
54746;BMP180;40640;48.130;11.356;2023-07-13T19:32:53;95961.00;;;21.80
54746;BMP180;40640;48.130;11.356;2023-07-13T19:37:00;95958.00;;;21.80
54746;BMP180;40640;48.130;11.356;2023-07-13T19:41:05;95972.00;;;21.70
54746;BMP180;40640;48.130;11.356;2023-07-13T19:45:14;95977.00;;;21.70
54746;BMP180;40640;48.130;11.356;2023-07-13T19:49:17;95977.00;;;21.60
54746;BMP180;40640;48.130;11.356;2023-07-13T19:53:22;95985.00;;;21.60
54746;BMP180;40640;48.130;11.356;2023-07-13T19:57:26;95988.00;;;21.40
54746;BMP180;40640;48.130;11.356;2023-07-13T20:01:30;95992.00;;;21.40
54746;BMP180;40640;48.130;11.356;2023-07-13T20:05:33;95993.00;;;21.30
54746;BMP180;40640;48.130;11.356;2023-07-13T20:09:39;96002.00;;;21.20
54746;BMP180;40640;48.130;11.356;2023-07-13T20:13:47;96008.00;;;21.20
54746;BMP180;40640;48.130;11.356;2023-07-13T20:17:52;95999.00;;;21.00
54746;BMP180;40640;48.130;11.356;2023-07-13T20:21:55;96004.00;;;20.90
54746;BMP180;40640;48.130;11.356;2023-07-13T20:26:00;96010.00;;;20.90
54746;BMP180;40640;48.130;11.356;2023-07-13T20:30:04;96012.00;;;20.70
54746;BMP180;40640;48.130;11.356;2023-07-13T20:34:15;96014.00;;;20.80
54746;BMP180;40640;48.130;11.356;2023-07-13T20:38:20;96033.00;;;20.60
54746;BMP180;40640;48.130;11.356;2023-07-13T20:42:25;96033.00;;;20.60
54746;BMP180;40640;48.130;11.356;2023-07-13T20:46:28;96027.00;;;20.40
54746;BMP180;40640;48.130;11.356;2023-07-13T20:50:31;96030.00;;;20.40
54746;BMP180;40640;48.130;11.356;2023-07-13T20:54:34;96037.00;;;20.30
54746;BMP180;40640;48.130;11.356;2023-07-13T20:58:38;96033.00;;;20.20
54746;BMP180;40640;48.130;11.356;2023-07-13T21:02:41;96038.00;;;20.10
54746;BMP180;40640;48.130;11.356;2023-07-13T21:06:45;96040.00;;;20.00
54746;BMP180;40640;48.130;11.356;2023-07-13T21:10:48;96040.00;;;20.10
54746;BMP180;40640;48.130;11.356;2023-07-13T21:14:53;96035.00;;;20.10
54746;BMP180;40640;48.130;11.356;2023-07-13T21:18:55;96029.00;;;20.10
54746;BMP180;40640;48.130;11.356;2023-07-13T21:22:58;96035.00;;;20.00
54746;BMP180;40640;48.130;11.356;2023-07-13T21:27:02;96033.00;;;19.90
54746;BMP180;40640;48.130;11.356;2023-07-13T21:31:10;96024.00;;;20.00
54746;BMP180;40640;48.130;11.356;2023-07-13T21:35:29;96049.00;;;19.90
54746;BMP180;40640;48.130;11.356;2023-07-13T21:39:32;96035.00;;;19.90
54746;BMP180;40640;48.130;11.356;2023-07-13T21:43:35;96041.00;;;19.80
54746;BMP180;40640;48.130;11.356;2023-07-13T21:47:39;96040.00;;;19.70
54746;BMP180;40640;48.130;11.356;2023-07-13T21:51:43;96052.00;;;19.70
54746;BMP180;40640;48.130;11.356;2023-07-13T21:55:46;96044.00;;;19.50
54746;BMP180;40640;48.130;11.356;2023-07-13T21:59:49;96055.00;;;19.50
54746;BMP180;40640;48.130;11.356;2023-07-13T22:03:56;96052.00;;;19.50
54746;BMP180;40640;48.130;11.356;2023-07-13T22:07:59;96045.00;;;19.40
54746;BMP180;40640;48.130;11.356;2023-07-13T22:12:02;96040.00;;;19.30
54746;BMP180;40640;48.130;11.356;2023-07-13T22:16:13;96045.00;;;19.30
54746;BMP180;40640;48.130;11.356;2023-07-13T22:20:21;96038.00;;;19.30
54746;BMP180;40640;48.130;11.356;2023-07-13T22:24:24;96025.00;;;19.20
54746;BMP180;40640;48.130;11.356;2023-07-13T22:28:27;96032.00;;;19.20
54746;BMP180;40640;48.130;11.356;2023-07-13T22:32:30;96026.00;;;19.10
54746;BMP180;40640;48.130;11.356;2023-07-13T22:36:35;96025.00;;;19.10
54746;BMP180;40640;48.130;11.356;2023-07-13T22:40:38;96031.00;;;19.10
54746;BMP180;40640;48.130;11.356;2023-07-13T22:44:40;96032.00;;;19.00
54746;BMP180;40640;48.130;11.356;2023-07-13T22:48:55;96026.00;;;19.00
54746;BMP180;40640;48.130;11.356;2023-07-13T22:53:00;96044.00;;;19.00
54746;BMP180;40640;48.130;11.356;2023-07-13T22:57:03;96032.00;;;18.80
54746;BMP180;40640;48.130;11.356;2023-07-13T23:01:14;96036.00;;;18.70
54746;BMP180;40640;48.130;11.356;2023-07-13T23:05:17;96031.00;;;18.80
54746;BMP180;40640;48.130;11.356;2023-07-13T23:09:24;96030.00;;;18.70
54746;BMP180;40640;48.130;11.356;2023-07-13T23:13:28;96034.00;;;18.80